Terminal Aerodrome Forecast
Issued by NWS Wilmington, OH

Current Version | Previous Version | Graphics & Text | Print | Product List | Glossary On
Versions: 1 2 3 4 5 6 7 8 9 10 11 12 13 14 15 16 17 18 19 20 21 22 23 24 25
000
FTUS41 KILN 131139
TAFDAY
TAF
KDAY 131139Z 1312/1412 20010KT P6SM OVC080
     FM131700 19014G22KT P6SM BKN120
     FM132200 22014G22KT P6SM VCSH OVC040
     FM140200 28018G28KT P6SM OVC025
     FM140700 33012KT P6SM OVC018=

USA.gov is the U.S. government's official web portal to all federal, state and local government web resources and services.